createdAt,value
2018-05-18T00:00:35.474Z,19.42
2018-05-18T00:01:35.354Z,19.43
2018-05-18T00:02:35.173Z,19.41
2018-05-18T00:03:35.289Z,19.42
2018-05-18T00:04:35.164Z,19.43
2018-05-18T00:05:35.316Z,19.41
2018-05-18T00:06:35.190Z,19.42
2018-05-18T00:07:35.214Z,19.42
2018-05-18T00:08:35.348Z,19.41
2018-05-18T00:09:35.445Z,19.41
2018-05-18T00:10:35.266Z,19.42
2018-05-18T00:11:35.127Z,19.4
2018-05-18T00:12:35.227Z,19.42
2018-05-18T00:13:35.354Z,19.41
2018-05-18T00:14:35.170Z,19.4
2018-05-18T00:15:35.575Z,19.41
2018-05-18T00:16:35.206Z,19.41
2018-05-18T00:17:35.134Z,19.4
2018-05-18T00:18:35.233Z,19.41
2018-05-18T00:19:35.310Z,19.41
2018-05-18T00:20:35.341Z,19.41
2018-05-18T00:21:35.363Z,19.42
2018-05-18T00:22:35.300Z,19.41
2018-05-18T00:23:35.228Z,19.4
2018-05-18T00:24:35.356Z,19.42
2018-05-18T00:25:35.183Z,19.41
2018-05-18T00:26:35.354Z,19.4
2018-05-18T00:27:35.297Z,19.4
2018-05-18T00:28:35.232Z,19.41
2018-05-18T00:29:35.245Z,19.4
2018-05-18T00:30:35.208Z,19.42
2018-05-18T00:31:35.193Z,19.41
2018-05-18T00:32:35.082Z,19.41
2018-05-18T00:33:35.158Z,19.42
2018-05-18T00:34:35.354Z,19.42
2018-05-18T00:35:35.132Z,19.4
2018-05-18T00:36:35.317Z,19.4
2018-05-18T00:37:35.360Z,19.41
2018-05-18T00:38:35.257Z,19.41
2018-05-18T00:39:35.162Z,19.41
2018-05-18T00:40:35.307Z,19.41
2018-05-18T00:41:35.325Z,19.4
2018-05-18T00:42:35.152Z,19.4
2018-05-18T00:43:35.240Z,19.4
2018-05-18T00:44:35.303Z,19.39
2018-05-18T00:45:35.291Z,19.4
2018-05-18T00:46:35.273Z,19.4
2018-05-18T00:47:35.220Z,19.4
2018-05-18T00:48:35.437Z,19.4
2018-05-18T00:49:35.374Z,19.4
2018-05-18T00:50:35.237Z,19.39
2018-05-18T00:51:35.245Z,19.41
2018-05-18T00:52:35.085Z,19.4
2018-05-18T00:53:35.223Z,19.39
2018-05-18T00:54:35.503Z,19.39
2018-05-18T00:55:35.118Z,19.4
2018-05-18T00:56:35.240Z,19.39
2018-05-18T00:57:35.258Z,19.39
2018-05-18T00:58:35.369Z,19.4
2018-05-18T00:59:35.197Z,19.39
2018-05-18T01:00:35.153Z,19.39
2018-05-18T01:01:35.108Z,19.39
2018-05-18T01:02:35.374Z,19.39
2018-05-18T01:03:35.323Z,19.39
2018-05-18T01:04:35.269Z,19.4
2018-05-18T01:05:35.209Z,19.39
2018-05-18T01:06:35.943Z,19.39
2018-05-18T01:07:35.776Z,19.4
2018-05-18T01:08:35.947Z,19.38
2018-05-18T01:09:36.227Z,19.4
2018-05-18T01:10:35.968Z,19.4
2018-05-18T01:11:36.050Z,19.38
2018-05-18T01:12:36.080Z,19.39
2018-05-18T01:13:36.034Z,19.39
2018-05-18T01:14:35.910Z,19.38
2018-05-18T01:15:36.052Z,19.38
2018-05-18T01:16:35.788Z,19.37
2018-05-18T01:17:37.320Z,19.38
2018-05-18T01:18:36.131Z,19.38
2018-05-18T01:19:35.173Z,19.38
2018-05-18T01:20:35.675Z,19.37
2018-05-18T01:21:35.144Z,19.38
2018-05-18T01:22:35.831Z,19.39
2018-05-18T01:23:35.854Z,19.37
2018-05-18T01:24:35.958Z,19.39
2018-05-18T01:25:36.029Z,19.39
2018-05-18T01:26:37.265Z,19.37
2018-05-18T01:27:35.927Z,19.37
2018-05-18T01:28:35.099Z,19.37
2018-05-18T01:29:35.804Z,19.37
2018-05-18T01:30:35.201Z,19.37
2018-05-18T01:31:35.593Z,19.38
2018-05-18T01:32:36.012Z,19.36
2018-05-18T01:33:36.000Z,19.39
2018-05-18T01:34:35.759Z,19.37
2018-05-18T01:35:36.771Z,19.37
2018-05-18T01:36:35.961Z,19.37
2018-05-18T01:37:35.225Z,19.38
2018-05-18T01:38:35.741Z,19.36
2018-05-18T01:39:35.762Z,19.37
2018-05-18T01:40:35.910Z,19.37
2018-05-18T01:41:35.731Z,19.36
2018-05-18T01:42:35.706Z,19.37
2018-05-18T01:43:35.988Z,19.37
2018-05-18T01:44:35.930Z,19.36
2018-05-18T01:45:36.481Z,19.37
2018-05-18T01:46:36.164Z,19.37
2018-05-18T01:47:35.185Z,19.36
2018-05-18T01:48:36.072Z,19.37
2018-05-18T01:49:36.102Z,19.37
2018-05-18T01:50:35.105Z,19.36
2018-05-18T01:51:36.015Z,19.35
2018-05-18T01:52:36.197Z,19.36
2018-05-18T01:53:35.935Z,19.34
2018-05-18T01:54:35.264Z,19.35
2018-05-18T01:55:35.068Z,19.35
2018-05-18T01:56:35.722Z,19.35
2018-05-18T01:57:35.864Z,19.36
2018-05-18T01:58:35.177Z,19.36
2018-05-18T01:59:35.897Z,19.35
2018-05-18T02:00:36.123Z,19.36
2018-05-18T02:01:35.890Z,19.35
2018-05-18T02:02:36.002Z,19.36
2018-05-18T02:03:35.965Z,19.37
2018-05-18T02:04:35.133Z,19.36
2018-05-18T02:05:35.539Z,19.35
2018-05-18T02:06:35.231Z,19.35
2018-05-18T02:07:35.310Z,19.35
2018-05-18T02:08:35.198Z,19.35
2018-05-18T02:09:35.168Z,19.35
2018-05-18T02:10:37.831Z,19.36
2018-05-18T02:11:35.302Z,19.35
2018-05-18T02:12:35.472Z,19.35
2018-05-18T02:13:35.315Z,19.35
2018-05-18T02:14:35.165Z,19.34
2018-05-18T02:15:35.282Z,19.34
2018-05-18T02:16:35.167Z,19.35
2018-05-18T02:17:35.275Z,19.34
2018-05-18T02:18:35.179Z,19.35
2018-05-18T02:19:35.261Z,19.36
2018-05-18T02:20:35.339Z,19.35
2018-05-18T02:21:35.213Z,19.34
2018-05-18T02:22:35.267Z,19.35
2018-05-18T02:23:35.276Z,19.33
2018-05-18T02:24:35.169Z,19.35
2018-05-18T02:25:37.608Z,19.34
2018-05-18T02:26:35.187Z,19.34
2018-05-18T02:27:35.305Z,19.34
2018-05-18T02:28:37.467Z,19.34
2018-05-18T02:29:35.213Z,19.33
2018-05-18T02:30:35.328Z,19.34
2018-05-18T02:31:35.306Z,19.34
2018-05-18T02:32:35.330Z,19.33
2018-05-18T02:33:35.351Z,19.33
2018-05-18T02:34:37.435Z,19.34
2018-05-18T02:35:35.192Z,19.34
2018-05-18T02:36:35.380Z,19.34
2018-05-18T02:37:35.258Z,19.35
2018-05-18T02:38:35.192Z,19.34
2018-05-18T02:39:35.179Z,19.34
2018-05-18T02:40:37.602Z,19.34
2018-05-18T02:41:35.205Z,19.33
2018-05-18T02:42:42.424Z,19.34
2018-05-18T02:43:35.306Z,19.35
2018-05-18T02:44:35.347Z,19.33
2018-05-18T02:45:35.331Z,19.33
2018-05-18T02:46:35.244Z,19.34
2018-05-18T02:47:35.293Z,19.33
2018-05-18T02:48:37.602Z,19.34
2018-05-18T02:49:35.267Z,19.32
2018-05-18T02:50:35.238Z,19.32
2018-05-18T02:51:37.220Z,19.33
2018-05-18T02:52:35.360Z,19.34
2018-05-18T02:53:35.271Z,19.32
2018-05-18T02:54:35.310Z,19.34
2018-05-18T02:55:35.233Z,19.34
2018-05-18T02:56:35.192Z,19.32
2018-05-18T02:57:35.325Z,19.33
2018-05-18T02:58:35.309Z,19.33
2018-05-18T02:59:35.192Z,19.32
2018-05-18T03:00:35.351Z,19.33
2018-05-18T03:01:35.323Z,19.32
2018-05-18T03:02:35.213Z,19.32
2018-05-18T03:03:35.345Z,19.32
2018-05-18T03:04:35.313Z,19.32
2018-05-18T03:05:35.610Z,19.32
2018-05-18T03:06:35.608Z,19.32
2018-05-18T03:07:35.188Z,19.32
2018-05-18T03:08:35.070Z,19.31
2018-05-18T03:09:35.055Z,19.31
2018-05-18T03:10:35.206Z,19.31
2018-05-18T03:11:35.502Z,19.31
2018-05-18T03:12:35.523Z,19.32
2018-05-18T03:13:35.489Z,19.33
2018-05-18T03:14:35.540Z,19.32
2018-05-18T03:15:35.578Z,19.32
2018-05-18T03:16:35.509Z,19.33
2018-05-18T03:17:35.168Z,19.32
2018-05-18T03:18:35.308Z,19.32
2018-05-18T03:19:35.220Z,19.32
2018-05-18T03:20:35.063Z,19.31
2018-05-18T03:21:35.130Z,19.32
2018-05-18T03:22:35.283Z,19.32
2018-05-18T03:23:35.121Z,19.32
2018-05-18T03:24:35.105Z,19.32
2018-05-18T03:25:35.330Z,19.32
2018-05-18T03:26:35.104Z,19.32
2018-05-18T03:27:35.042Z,19.32
2018-05-18T03:28:35.129Z,19.32
2018-05-18T03:29:35.237Z,19.31
2018-05-18T03:30:35.253Z,19.32
2018-05-18T03:31:35.170Z,19.32
2018-05-18T03:32:35.249Z,19.3
2018-05-18T03:33:35.263Z,19.32
2018-05-18T03:34:35.127Z,19.32
2018-05-18T03:35:35.225Z,19.3
2018-05-18T03:36:35.142Z,19.31
2018-05-18T03:37:35.346Z,19.31
2018-05-18T03:38:35.340Z,19.3
2018-05-18T03:39:35.165Z,19.31
2018-05-18T03:40:35.034Z,19.31
2018-05-18T03:41:35.203Z,19.3
2018-05-18T03:42:35.291Z,19.3
2018-05-18T03:43:35.311Z,19.3
2018-05-18T03:44:35.267Z,19.31
2018-05-18T03:45:35.213Z,19.3
2018-05-18T03:46:35.171Z,19.31
2018-05-18T03:47:35.081Z,19.3
2018-05-18T03:48:35.238Z,19.3
2018-05-18T03:49:35.078Z,19.3
2018-05-18T03:50:35.320Z,19.3
2018-05-18T03:51:35.260Z,19.3
2018-05-18T03:52:35.227Z,19.31
2018-05-18T03:53:35.293Z,19.3
2018-05-18T03:54:35.245Z,19.3
2018-05-18T03:55:35.191Z,19.31
2018-05-18T03:56:35.373Z,19.29
2018-05-18T03:57:35.237Z,19.3
2018-05-18T03:58:35.075Z,19.3
2018-05-18T03:59:35.231Z,19.29
2018-05-18T04:00:35.237Z,19.3
2018-05-18T04:01:35.053Z,19.29
2018-05-18T04:02:35.304Z,19.28
2018-05-18T04:03:35.309Z,19.3
2018-05-18T04:04:35.212Z,19.29
2018-05-18T04:05:35.176Z,19.28
2018-05-18T04:06:35.126Z,19.29
2018-05-18T04:07:35.061Z,19.29
2018-05-18T04:08:35.281Z,19.29
2018-05-18T04:09:35.351Z,19.3
2018-05-18T04:10:35.283Z,19.29
2018-05-18T04:11:35.220Z,19.29
2018-05-18T04:12:35.192Z,19.29
2018-05-18T04:13:35.138Z,19.3
2018-05-18T04:14:35.275Z,19.29
2018-05-18T04:15:35.284Z,19.29
2018-05-18T04:16:35.043Z,19.3
2018-05-18T04:17:35.057Z,19.28
2018-05-18T04:18:35.236Z,19.3
2018-05-18T04:19:35.111Z,19.3
2018-05-18T04:20:35.278Z,19.3
2018-05-18T04:21:35.245Z,19.29
2018-05-18T04:22:35.120Z,19.3
2018-05-18T04:23:35.308Z,19.28
2018-05-18T04:24:35.458Z,19.3
2018-05-18T04:25:35.087Z,19.3
2018-05-18T04:26:35.096Z,19.28
2018-05-18T04:27:35.168Z,19.29
2018-05-18T04:28:35.052Z,19.3
2018-05-18T04:29:35.151Z,19.28
2018-05-18T04:30:35.348Z,19.3
2018-05-18T04:31:35.255Z,19.31
2018-05-18T04:32:35.131Z,19.29
2018-05-18T04:33:35.124Z,19.3
2018-05-18T04:34:35.070Z,19.28
2018-05-18T04:35:35.324Z,19.28
2018-05-18T04:36:35.293Z,19.29
2018-05-18T04:37:35.323Z,19.29
2018-05-18T04:38:35.368Z,19.29
2018-05-18T04:39:35.310Z,19.3
2018-05-18T04:40:35.215Z,19.28
2018-05-18T04:41:35.299Z,19.27
2018-05-18T04:42:35.288Z,19.3
2018-05-18T04:43:35.111Z,19.28
2018-05-18T04:44:35.252Z,19.28
2018-05-18T04:45:35.125Z,19.29
2018-05-18T04:46:35.222Z,19.28
2018-05-18T04:47:35.384Z,19.29
2018-05-18T04:48:35.227Z,19.29
2018-05-18T04:49:35.132Z,19.29
2018-05-18T04:50:35.276Z,19.28
2018-05-18T04:51:35.101Z,19.29
2018-05-18T04:52:35.084Z,19.28
2018-05-18T04:53:35.169Z,19.28
2018-05-18T04:54:35.108Z,19.28
2018-05-18T04:55:35.194Z,19.29
2018-05-18T04:56:35.279Z,19.28
2018-05-18T04:57:35.211Z,19.29
2018-05-18T04:58:35.202Z,19.29
2018-05-18T04:59:35.257Z,19.28
2018-05-18T05:00:35.220Z,19.29
2018-05-18T05:01:35.015Z,19.29
2018-05-18T05:02:35.178Z,19.27
2018-05-18T05:03:35.260Z,19.28
2018-05-18T05:04:35.202Z,19.28
2018-05-18T05:05:35.265Z,19.27
2018-05-18T05:06:35.211Z,19.29
2018-05-18T05:07:35.262Z,19.28
2018-05-18T05:08:35.349Z,19.26
2018-05-18T05:09:35.200Z,19.28
2018-05-18T05:10:45.287Z,19.29
2018-05-18T05:11:35.371Z,19.28
2018-05-18T05:12:35.242Z,19.28
2018-05-18T05:13:35.121Z,19.28
2018-05-18T05:14:35.249Z,19.27
2018-05-18T05:15:35.182Z,19.29
2018-05-18T05:16:35.075Z,19.29
2018-05-18T05:17:35.248Z,19.27
2018-05-18T05:18:35.316Z,19.28
2018-05-18T05:19:35.346Z,19.28
2018-05-18T05:20:35.170Z,19.28
2018-05-18T05:21:35.387Z,19.28
2018-05-18T05:22:35.069Z,19.28
2018-05-18T05:23:35.303Z,19.27
2018-05-18T05:24:35.187Z,19.28
2018-05-18T05:25:35.135Z,19.28
2018-05-18T05:26:34.982Z,19.27
2018-05-18T05:27:35.189Z,19.28
2018-05-18T05:28:35.060Z,19.29
2018-05-18T05:29:35.322Z,19.28
2018-05-18T05:30:35.324Z,19.27
2018-05-18T05:31:35.188Z,19.28
2018-05-18T05:32:35.344Z,19.31
2018-05-18T05:33:35.242Z,19.34
2018-05-18T05:34:35.309Z,19.39
2018-05-18T05:35:35.055Z,19.41
2018-05-18T05:36:35.108Z,19.44
2018-05-18T05:37:35.182Z,19.48
2018-05-18T05:38:35.125Z,19.5
2018-05-18T05:39:35.117Z,19.52
2018-05-18T05:40:35.097Z,19.53
2018-05-18T05:41:35.249Z,19.54
2018-05-18T05:42:35.156Z,19.53
2018-05-18T05:43:35.307Z,19.56
2018-05-18T05:44:35.072Z,19.56
2018-05-18T05:45:35.039Z,19.58
2018-05-18T05:46:35.222Z,19.57
2018-05-18T05:47:35.322Z,19.59
2018-05-18T05:48:35.208Z,19.59
2018-05-18T05:49:35.243Z,19.62
2018-05-18T05:50:35.178Z,19.6
2018-05-18T05:51:35.186Z,19.61
2018-05-18T05:52:35.212Z,19.6
2018-05-18T05:53:34.997Z,19.62
2018-05-18T05:54:35.277Z,19.65
2018-05-18T05:55:35.226Z,19.63
2018-05-18T05:56:35.133Z,19.57
2018-05-18T05:57:35.101Z,19.57
2018-05-18T05:58:35.295Z,19.6
2018-05-18T05:59:35.246Z,19.58
2018-05-18T06:00:35.228Z,19.62
2018-05-18T06:01:35.243Z,19.58
2018-05-18T06:02:35.072Z,19.55
2018-05-18T06:03:35.157Z,19.57
2018-05-18T06:04:35.254Z,19.57
2018-05-18T06:05:35.197Z,19.59
2018-05-18T06:06:35.463Z,19.64
2018-05-18T06:07:35.146Z,19.65
2018-05-18T06:08:35.019Z,19.65
2018-05-18T06:09:35.322Z,19.69
2018-05-18T06:10:35.444Z,19.68
2018-05-18T06:11:35.191Z,19.66
2018-05-18T06:12:35.268Z,19.69
2018-05-18T06:13:35.114Z,19.66
2018-05-18T06:14:35.260Z,19.65
2018-05-18T06:15:35.076Z,19.66
2018-05-18T06:16:35.110Z,19.65
2018-05-18T06:17:35.452Z,19.66
2018-05-18T06:18:35.536Z,19.69
2018-05-18T06:19:35.339Z,19.68
2018-05-18T06:20:35.184Z,19.69
2018-05-18T06:21:35.178Z,19.64
2018-05-18T06:22:35.107Z,19.63
2018-05-18T06:23:35.040Z,19.7
2018-05-18T06:24:35.118Z,19.73
2018-05-18T06:25:35.294Z,19.76
2018-05-18T06:26:35.199Z,19.72
2018-05-18T06:27:45.104Z,19.75
2018-05-18T06:28:35.045Z,19.79
2018-05-18T06:29:35.141Z,19.79
2018-05-18T06:30:35.240Z,19.79
2018-05-18T06:31:35.293Z,19.8
2018-05-18T06:32:35.078Z,19.78
2018-05-18T06:33:35.130Z,19.78
2018-05-18T06:34:35.116Z,19.79
2018-05-18T06:35:35.150Z,19.78
2018-05-18T06:36:35.178Z,19.82
2018-05-18T06:37:35.064Z,19.85
2018-05-18T06:38:35.213Z,19.83
2018-05-18T06:39:35.084Z,19.81
2018-05-18T06:40:35.037Z,19.81
2018-05-18T06:41:35.150Z,19.83
2018-05-18T06:42:35.290Z,19.85
2018-05-18T06:43:35.084Z,19.85
2018-05-18T06:44:35.110Z,19.83
2018-05-18T06:45:35.160Z,19.82
2018-05-18T06:46:35.015Z,19.83
2018-05-18T06:47:35.261Z,19.85
2018-05-18T06:48:35.272Z,19.83
2018-05-18T06:49:35.289Z,19.84
2018-05-18T06:50:35.080Z,19.82
2018-05-18T06:51:35.229Z,19.85
2018-05-18T06:52:34.995Z,19.86
2018-05-18T06:53:35.103Z,19.85
2018-05-18T06:54:35.201Z,19.86
2018-05-18T06:55:35.251Z,19.89
2018-05-18T06:56:35.084Z,19.9
2018-05-18T06:57:35.316Z,19.91
2018-05-18T06:58:35.239Z,19.92
2018-05-18T06:59:35.169Z,19.86
2018-05-18T07:00:35.116Z,19.87
2018-05-18T07:01:35.016Z,19.87
2018-05-18T07:02:35.080Z,19.87
2018-05-18T07:03:35.106Z,19.87
2018-05-18T07:04:35.381Z,19.88
2018-05-18T07:05:35.050Z,19.89
2018-05-18T07:06:35.255Z,19.85
2018-05-18T07:07:35.140Z,19.85
2018-05-18T07:08:35.238Z,19.84
2018-05-18T07:09:35.228Z,19.87
2018-05-18T07:10:35.027Z,19.88
2018-05-18T07:11:35.212Z,19.88
2018-05-18T07:12:35.193Z,19.89
2018-05-18T07:13:35.279Z,19.92
2018-05-18T07:14:35.211Z,19.91
2018-05-18T07:15:35.247Z,19.93
2018-05-18T07:16:35.186Z,19.95
2018-05-18T07:17:35.264Z,19.96
2018-05-18T07:18:35.029Z,19.96
2018-05-18T07:19:35.388Z,19.97
2018-05-18T07:20:35.043Z,19.95
2018-05-18T07:21:35.112Z,19.96
2018-05-18T07:22:35.255Z,19.99
2018-05-18T07:23:35.192Z,19.98
2018-05-18T07:24:35.207Z,20
2018-05-18T07:25:35.124Z,19.99
2018-05-18T07:26:35.436Z,19.94
2018-05-18T07:27:35.136Z,19.9
2018-05-18T07:28:34.998Z,19.87
2018-05-18T07:29:35.211Z,19.88
2018-05-18T07:30:34.979Z,19.87
2018-05-18T07:31:35.140Z,19.87
2018-05-18T07:32:35.340Z,19.86
2018-05-18T07:33:35.291Z,19.85
2018-05-18T07:34:34.981Z,19.85
2018-05-18T07:35:35.228Z,19.83
2018-05-18T07:36:35.310Z,19.84
2018-05-18T07:37:35.090Z,19.85
2018-05-18T07:38:35.310Z,19.82
2018-05-18T07:39:35.053Z,19.81
2018-05-18T07:40:35.308Z,19.83
2018-05-18T07:41:35.229Z,19.8
2018-05-18T07:42:35.311Z,19.8
2018-05-18T07:43:35.216Z,19.79
2018-05-18T07:44:35.130Z,19.79
2018-05-18T07:45:35.160Z,19.79
2018-05-18T07:46:35.299Z,19.8
2018-05-18T07:47:35.262Z,19.77
2018-05-18T07:48:34.965Z,19.8
2018-05-18T07:49:35.188Z,19.79
2018-05-18T07:50:35.250Z,19.78
2018-05-18T07:51:35.150Z,19.79
2018-05-18T07:52:35.071Z,19.8
2018-05-18T07:53:35.340Z,19.79
2018-05-18T07:54:35.189Z,19.78
2018-05-18T07:55:35.401Z,19.76
2018-05-18T07:56:35.089Z,19.76
2018-05-18T07:57:35.094Z,19.74
2018-05-18T07:58:34.979Z,19.77
2018-05-18T07:59:35.086Z,19.76
2018-05-18T08:00:35.178Z,19.76
2018-05-18T08:01:35.097Z,19.78
2018-05-18T08:02:35.139Z,19.79
2018-05-18T08:03:35.248Z,19.81
2018-05-18T08:04:35.227Z,19.82
2018-05-18T08:05:34.991Z,19.83
2018-05-18T08:06:34.949Z,19.85
2018-05-18T08:07:35.014Z,19.87
2018-05-18T08:08:35.206Z,19.83
2018-05-18T08:09:35.855Z,19.81
2018-05-18T08:10:35.921Z,19.83
2018-05-18T08:11:35.759Z,19.84
2018-05-18T08:12:35.739Z,19.84
2018-05-18T08:13:35.989Z,19.85
2018-05-18T08:14:35.896Z,19.82
2018-05-18T08:15:35.684Z,19.84
2018-05-18T08:16:35.816Z,19.83
2018-05-18T08:17:35.882Z,19.83
2018-05-18T08:18:35.697Z,19.84
2018-05-18T08:19:35.770Z,19.85
2018-05-18T08:20:35.710Z,19.83
2018-05-18T08:21:35.802Z,19.85
2018-05-18T08:22:35.721Z,19.84
2018-05-18T08:23:35.649Z,19.82
2018-05-18T08:24:35.668Z,19.85
2018-05-18T08:25:35.790Z,19.85
2018-05-18T08:26:35.898Z,19.83
2018-05-18T08:27:35.662Z,19.87
2018-05-18T08:28:35.676Z,19.85
2018-05-18T08:29:35.942Z,19.8
2018-05-18T08:30:35.825Z,19.82
2018-05-18T08:31:35.974Z,19.84
2018-05-18T08:32:35.770Z,19.83
2018-05-18T08:33:35.687Z,19.83
2018-05-18T08:34:35.819Z,19.81
2018-05-18T08:35:35.796Z,19.83
2018-05-18T08:36:35.786Z,19.85
2018-05-18T08:37:35.778Z,19.82
2018-05-18T08:38:35.730Z,19.77
2018-05-18T08:39:34.989Z,19.75
2018-05-18T08:40:35.168Z,19.77
2018-05-18T08:41:35.112Z,19.73
2018-05-18T08:42:35.062Z,19.74
2018-05-18T08:43:35.109Z,19.75
2018-05-18T08:44:35.172Z,19.74
2018-05-18T08:45:35.177Z,19.76
2018-05-18T08:46:35.010Z,19.75
2018-05-18T08:47:35.271Z,19.73
2018-05-18T08:48:35.077Z,19.71
2018-05-18T08:49:35.406Z,19.71
2018-05-18T08:50:35.179Z,19.7
2018-05-18T08:51:45.152Z,19.71
2018-05-18T08:52:35.152Z,19.71
2018-05-18T08:53:35.064Z,19.69
2018-05-18T08:54:35.238Z,19.7
2018-05-18T08:55:35.174Z,19.7
2018-05-18T08:56:35.131Z,19.7
2018-05-18T08:57:35.140Z,19.71
2018-05-18T08:58:35.030Z,19.7
2018-05-18T08:59:35.305Z,19.69
2018-05-18T09:00:35.199Z,19.7
2018-05-18T09:01:35.086Z,19.7
2018-05-18T09:02:35.036Z,19.69
2018-05-18T09:03:35.096Z,19.68
2018-05-18T09:04:35.226Z,19.69
2018-05-18T09:05:35.240Z,19.68
2018-05-18T09:06:35.278Z,19.68
2018-05-18T09:07:34.985Z,19.69
2018-05-18T09:08:35.099Z,19.67
2018-05-18T09:09:35.103Z,19.68
2018-05-18T09:10:35.120Z,19.69
2018-05-18T09:11:35.205Z,19.68
2018-05-18T09:12:35.047Z,19.7
2018-05-18T09:13:35.220Z,19.68
2018-05-18T09:14:35.157Z,19.68
2018-05-18T09:15:35.080Z,19.68
2018-05-18T09:16:35.016Z,19.68
2018-05-18T09:17:35.126Z,19.68
2018-05-18T09:18:35.053Z,19.67
2018-05-18T09:19:34.997Z,19.68
2018-05-18T09:20:35.084Z,19.66
2018-05-18T09:21:35.241Z,19.67
2018-05-18T09:22:35.035Z,19.66
2018-05-18T09:23:35.073Z,19.65
2018-05-18T09:24:35.186Z,19.65
2018-05-18T09:25:35.001Z,19.66
2018-05-18T09:26:35.088Z,19.65
2018-05-18T09:27:35.224Z,19.65
2018-05-18T09:28:35.106Z,19.65
2018-05-18T09:29:35.249Z,19.65
2018-05-18T09:30:35.186Z,19.66
2018-05-18T09:31:35.170Z,19.67
2018-05-18T09:32:35.111Z,19.65
2018-05-18T09:33:35.230Z,19.65
2018-05-18T09:34:34.912Z,19.65
2018-05-18T09:35:35.098Z,19.63
2018-05-18T09:36:34.985Z,19.64
2018-05-18T09:37:35.167Z,19.64
2018-05-18T09:38:34.934Z,19.63
2018-05-18T09:39:35.090Z,19.64
2018-05-18T09:40:35.020Z,19.64
2018-05-18T09:41:35.007Z,19.62
2018-05-18T09:42:35.150Z,19.64
2018-05-18T09:43:35.077Z,19.63
2018-05-18T09:44:35.151Z,19.63
2018-05-18T09:45:35.069Z,19.63
2018-05-18T09:46:35.032Z,19.62
2018-05-18T09:47:35.031Z,19.62
2018-05-18T09:48:35.243Z,19.64
2018-05-18T09:49:35.212Z,19.62
2018-05-18T09:50:35.198Z,19.6
2018-05-18T09:51:35.221Z,19.62
2018-05-18T09:52:34.960Z,19.63
2018-05-18T09:53:34.973Z,19.62
2018-05-18T09:54:35.157Z,19.62
2018-05-18T09:55:35.351Z,19.63
2018-05-18T09:56:35.079Z,19.62
2018-05-18T09:57:35.175Z,19.62
2018-05-18T09:58:35.123Z,19.62
2018-05-18T09:59:35.126Z,19.6
2018-05-18T10:00:35.290Z,19.62
2018-05-18T10:01:34.903Z,19.62
2018-05-18T10:02:35.198Z,19.6
2018-05-18T10:03:34.984Z,19.61
2018-05-18T10:04:35.132Z,19.6
2018-05-18T10:05:34.999Z,19.6
2018-05-18T10:06:34.998Z,19.6
2018-05-18T10:07:35.016Z,19.59
2018-05-18T10:08:35.135Z,19.57
2018-05-18T10:09:35.151Z,19.6
2018-05-18T10:10:35.045Z,19.59
2018-05-18T10:11:35.002Z,19.58
2018-05-18T10:12:34.947Z,19.58
2018-05-18T10:13:35.099Z,19.57
2018-05-18T10:14:35.143Z,19.57
2018-05-18T10:15:35.212Z,19.57
2018-05-18T10:16:35.008Z,19.57
2018-05-18T10:17:35.210Z,19.55
2018-05-18T10:18:35.181Z,19.56
2018-05-18T10:19:35.151Z,19.56
2018-05-18T10:20:34.955Z,19.56
2018-05-18T10:21:34.945Z,19.55
2018-05-18T10:22:34.967Z,19.57
2018-05-18T10:23:35.047Z,19.56
2018-05-18T10:24:35.154Z,19.56
2018-05-18T10:25:34.952Z,19.56
2018-05-18T10:26:35.144Z,19.56
2018-05-18T10:27:35.006Z,19.57
2018-05-18T10:28:35.192Z,19.58
2018-05-18T10:29:35.236Z,19.56
2018-05-18T10:30:34.923Z,19.56
2018-05-18T10:31:35.148Z,19.55
2018-05-18T10:32:35.163Z,19.55
2018-05-18T10:33:35.060Z,19.55
2018-05-18T10:34:35.173Z,19.56
2018-05-18T10:35:35.051Z,19.55
2018-05-18T10:36:34.986Z,19.57
2018-05-18T10:37:35.097Z,19.56
2018-05-18T10:38:35.173Z,19.55
2018-05-18T10:39:45.157Z,19.55
2018-05-18T10:40:35.177Z,19.55
2018-05-18T10:41:34.976Z,19.54
2018-05-18T10:42:34.979Z,19.55
2018-05-18T10:43:35.109Z,19.55
2018-05-18T10:44:35.147Z,19.53
2018-05-18T10:45:35.116Z,19.54
2018-05-18T10:46:35.064Z,19.54
2018-05-18T10:47:35.031Z,19.53
2018-05-18T10:48:35.195Z,19.53
2018-05-18T10:49:35.096Z,19.53
2018-05-18T10:50:35.144Z,19.53
2018-05-18T10:51:35.028Z,19.53
2018-05-18T10:52:35.058Z,19.54
2018-05-18T10:53:35.166Z,19.53
2018-05-18T10:54:35.127Z,19.53
2018-05-18T10:55:45.032Z,19.53
2018-05-18T10:56:35.216Z,19.55
2018-05-18T10:57:35.083Z,19.6
2018-05-18T10:58:35.010Z,19.62
2018-05-18T10:59:35.163Z,19.61
2018-05-18T11:00:35.172Z,19.64
2018-05-18T11:01:35.111Z,19.66
2018-05-18T11:02:35.049Z,19.64
2018-05-18T11:03:35.022Z,19.62
2018-05-18T11:04:35.050Z,19.62
2018-05-18T11:05:34.934Z,19.64
2018-05-18T11:06:35.115Z,19.64
2018-05-18T11:07:35.162Z,19.67
2018-05-18T11:08:35.043Z,19.7
2018-05-18T11:09:35.171Z,19.68
2018-05-18T11:10:35.093Z,19.71
2018-05-18T11:11:34.965Z,19.72
2018-05-18T11:12:35.118Z,19.72
2018-05-18T11:13:35.167Z,19.73
2018-05-18T11:14:35.207Z,19.72
2018-05-18T11:15:35.183Z,19.74
2018-05-18T11:16:35.042Z,19.74
2018-05-18T11:17:35.018Z,19.71
2018-05-18T11:18:35.150Z,19.72
2018-05-18T11:19:35.068Z,19.71
2018-05-18T11:20:35.063Z,19.71
2018-05-18T11:21:35.049Z,19.72
2018-05-18T11:22:35.156Z,19.72
2018-05-18T11:23:35.092Z,19.73
2018-05-18T11:24:35.005Z,19.73
2018-05-18T11:25:35.220Z,19.72
2018-05-18T11:26:34.957Z,19.71
2018-05-18T11:27:35.180Z,19.73
2018-05-18T11:28:35.034Z,19.72
2018-05-18T11:29:34.933Z,19.7
2018-05-18T11:30:35.040Z,19.72
2018-05-18T11:31:35.004Z,19.71
2018-05-18T11:32:35.045Z,19.7
2018-05-18T11:33:35.038Z,19.7
2018-05-18T11:34:35.119Z,19.72
2018-05-18T11:35:34.972Z,19.71
2018-05-18T11:36:35.143Z,19.71
2018-05-18T11:37:35.156Z,19.71
2018-05-18T11:38:34.914Z,19.69
2018-05-18T11:39:35.111Z,19.7
2018-05-18T11:40:35.093Z,19.71
2018-05-18T11:41:35.134Z,19.7
2018-05-18T11:42:35.099Z,19.71
2018-05-18T11:43:35.010Z,19.7
2018-05-18T11:44:34.933Z,19.69
2018-05-18T11:45:35.142Z,19.69
2018-05-18T11:46:35.197Z,19.68
2018-05-18T11:47:34.813Z,19.68
2018-05-18T11:48:35.235Z,19.66
2018-05-18T11:49:35.001Z,19.65
2018-05-18T11:50:35.142Z,19.64
2018-05-18T11:51:34.932Z,19.62
2018-05-18T11:52:35.032Z,19.62
2018-05-18T11:53:35.189Z,19.6
2018-05-18T11:54:35.207Z,19.61
2018-05-18T11:55:35.208Z,19.61
2018-05-18T11:56:34.936Z,19.62
2018-05-18T11:57:35.061Z,19.6
2018-05-18T11:58:35.205Z,19.6
2018-05-18T11:59:35.183Z,19.6
2018-05-18T12:00:35.210Z,19.6
2018-05-18T12:01:34.988Z,19.6
2018-05-18T12:02:35.272Z,19.58
2018-05-18T12:03:35.032Z,19.59
2018-05-18T12:04:34.986Z,19.6
2018-05-18T12:05:34.988Z,19.58
2018-05-18T12:06:35.080Z,19.59
2018-05-18T12:07:35.122Z,19.58
2018-05-18T12:08:35.120Z,19.57
2018-05-18T12:09:35.052Z,19.57
2018-05-18T12:10:35.051Z,19.59
2018-05-18T12:11:35.161Z,19.57
2018-05-18T12:12:35.142Z,19.57
2018-05-18T12:13:34.989Z,19.58
2018-05-18T12:14:34.956Z,19.57
2018-05-18T12:15:35.189Z,19.57
2018-05-18T12:16:34.999Z,19.58
2018-05-18T12:17:35.021Z,19.57
2018-05-18T12:18:35.000Z,19.56
2018-05-18T12:19:35.169Z,19.57
2018-05-18T12:20:35.176Z,19.56
2018-05-18T12:21:35.364Z,19.57
2018-05-18T12:22:35.178Z,19.58
2018-05-18T12:23:35.189Z,19.56
2018-05-18T12:24:35.183Z,19.56
2018-05-18T12:25:35.245Z,19.57
2018-05-18T12:26:35.198Z,19.55
2018-05-18T12:27:35.205Z,19.55
2018-05-18T12:28:35.209Z,19.55
2018-05-18T12:29:35.030Z,19.54
2018-05-18T12:30:35.233Z,19.55
2018-05-18T12:31:35.341Z,19.55
2018-05-18T12:32:35.031Z,19.54
2018-05-18T12:33:35.260Z,19.55
2018-05-18T12:34:35.259Z,19.53
2018-05-18T12:35:35.244Z,19.52
2018-05-18T12:36:34.991Z,19.56
2018-05-18T12:37:35.309Z,19.61
2018-05-18T12:38:35.287Z,19.61
2018-05-18T12:39:35.104Z,19.62
2018-05-18T12:40:35.291Z,19.63
2018-05-18T12:41:35.328Z,19.61
2018-05-18T12:42:35.314Z,19.63
2018-05-18T12:43:35.119Z,19.65
2018-05-18T12:44:35.352Z,19.7
2018-05-18T12:45:35.333Z,19.7
2018-05-18T12:46:35.319Z,19.72
2018-05-18T12:47:35.346Z,19.7
2018-05-18T12:48:35.361Z,19.74
2018-05-18T12:49:35.360Z,19.74
2018-05-18T12:50:34.972Z,19.75
2018-05-18T12:51:35.382Z,19.74
2018-05-18T12:52:35.193Z,19.74
2018-05-18T12:53:35.189Z,19.71
2018-05-18T12:54:34.920Z,19.73
2018-05-18T12:55:35.412Z,19.73
2018-05-18T12:56:35.421Z,19.71